John C. Munro Hamilton International Airport
CYHM : now visible

Airfield :











YOU CAN JOIN US ON...

 
LOGIN :

Register | Disclaimer

   EN    FR    IT 

 









Legend :    VFR   Marginal VFR   IFR   Intensive IFR   Very Intensive IFR
Visi :
Ceiling :
>= 8 km
>= 3000ft
5 to 8 km
1000 to 3000 ft
1500m to 5 km
500 to 1000 ft
800 to 1500m
200 to 500 ft
< 800m
< 200 ft
Symbols :   Thunderstorms  Fog  Heavy snow  Heavy precipitations  Wind > 20 kt






- Airport Elevation : 780 ft
- IATA code : YHM


CYHM - John C. Munro Hamilton International

CURRENT METAR :
  • 230200Z 23004KT 15SM SKC 00/M07 A3000 RMK SLP170

EXPIRED METARs :
  • 230100Z 27005KT 15SM FEW050 FEW250 01/M08 A2998 RMK SC1CI1 SC TR CI TR SLP164
  • 230000Z 30010KT 15SM FEW055 03/M08 A2996 RMK SC1 SC TR VIRGA E SLP157

TAF TAF CYHM
Valid from the 23 at 00:00 until the 24 at 00:00 UTC


222338Z 2300/2324 29010G20KT P6SM BKN050
BECMG 2300/2302 27008KT FEW060
FM230200 27008KT P6SM FEW060
BECMG 2313/2315 23015KT
FM231800 26015KT P6SM SCT080 RMK NXT FCST BY 230600Z
CZYZ FIR / North America



MET'MAP, your aeronautical weather chart ! - Copyright ORBIFLY December 2007 - Disclaimer

ORBIFLY MET'MAP TEAM :

Programming & Development : Alexandra Zaïnal
Concept & original design : Baudouin d'Aumeries
Assistance for programming : Marc-Olivier Méhu
Technical & hardware support : Manuel Goepfert

Contact : metmap@orbifly.com




SOURCES & CREDITS :

   NOAA       Earth
Advisory